DKFGT EDFM-EDRY
Flight info
| Callsign | DKFGT |
|---|---|
| Flight time | 0h -10m |
| Altitude | 9000 |
| Route | DCT |
| Aircraft | DV20/L-V/L |
Departure
| Time | 2026-05-08 18:35 |
|---|---|
| Airport | Mannheim-City Airport (EDFM) |
Arrival
| Time | 2026-05-08 18:25 |
|---|---|
| Airport | Speyer Airfield (EDRY) |
| Time | Latitude | Longitude | Altitude | Speed | Heading |
|---|---|---|---|---|---|
| 2026-05-08 18:25 | 49.47561 | 8.52029 | 312 ft | 0 kts | 183° |
| 2026-05-08 18:30 | 49.47559 | 8.52029 | 312 ft | 5 kts | 182° |
| 2026-05-08 18:30 | 49.47539 | 8.52123 | 312 ft | 12 kts | 91° |
| 2026-05-08 18:30 | 49.47526 | 8.52171 | 313 ft | 6 kts | 179° |
| 2026-05-08 18:30 | 49.47460 | 8.52165 | 313 ft | 11 kts | 184° |
| 2026-05-08 18:31 | 49.47375 | 8.52159 | 313 ft | 14 kts | 182° |
| 2026-05-08 18:31 | 49.47273 | 8.52150 | 310 ft | 10 kts | 184° |
| 2026-05-08 18:31 | 49.47201 | 8.52104 | 310 ft | 11 kts | 254° |
| 2026-05-08 18:31 | 49.47200 | 8.51973 | 311 ft | 13 kts | 272° |
| 2026-05-08 18:32 | 49.47206 | 8.51814 | 310 ft | 17 kts | 272° |
| 2026-05-08 18:32 | 49.47212 | 8.51616 | 308 ft | 20 kts | 273° |
| 2026-05-08 18:32 | 49.47219 | 8.51405 | 310 ft | 20 kts | 272° |
| 2026-05-08 18:32 | 49.47228 | 8.51177 | 308 ft | 22 kts | 273° |
| 2026-05-08 18:33 | 49.47235 | 8.50978 | 312 ft | 15 kts | 276° |
| 2026-05-08 18:33 | 49.47240 | 8.50799 | 311 ft | 12 kts | 273° |
| 2026-05-08 18:33 | 49.47252 | 8.50740 | 310 ft | 0 kts | 300° |
| 2026-05-08 18:34 | 49.47259 | 8.50722 | 310 ft | 9 kts | 301° |
| 2026-05-08 18:34 | 49.47289 | 8.50682 | 311 ft | 6 kts | 31° |
| 2026-05-08 18:34 | 49.47289 | 8.50899 | 313 ft | 47 kts | 92° |
| 2026-05-08 18:34 | 49.47270 | 8.51579 | 412 ft | 73 kts | 90° |
| 2026-05-08 18:35 | 49.47250 | 8.52363 | 660 ft | 70 kts | 95° |
| 2026-05-08 18:35 | 49.46847 | 8.52742 | 904 ft | 81 kts | 185° |
| 2026-05-08 18:35 | 49.46297 | 8.52481 | 1117 ft | 83 kts | 194° |
| 2026-05-08 18:35 | 49.45734 | 8.52215 | 1350 ft | 86 kts | 193° |
| 2026-05-08 18:36 | 49.45130 | 8.52024 | 1495 ft | 92 kts | 179° |
| 2026-05-08 18:36 | 49.44702 | 8.51973 | 1613 ft | 95 kts | 179° |
| 2026-05-08 18:36 | 49.44022 | 8.51923 | 1697 ft | 102 kts | 175° |
| 2026-05-08 18:36 | 49.43311 | 8.51851 | 1817 ft | 106 kts | 184° |
| 2026-05-08 18:37 | 49.42291 | 8.51602 | 1824 ft | 117 kts | 183° |
| 2026-05-08 18:37 | 49.41734 | 8.51507 | 1851 ft | 118 kts | 181° |
| 2026-05-08 18:37 | 49.40942 | 8.51332 | 1913 ft | 116 kts | 188° |
| 2026-05-08 18:37 | 49.40159 | 8.50947 | 1923 ft | 120 kts | 195° |
| 2026-05-08 18:38 | 49.39353 | 8.50545 | 1870 ft | 123 kts | 192° |
| 2026-05-08 18:38 | 49.38590 | 8.50222 | 1910 ft | 118 kts | 190° |
| 2026-05-08 18:38 | 49.37798 | 8.49969 | 2003 ft | 110 kts | 185° |
| 2026-05-08 18:38 | 49.37093 | 8.49766 | 2176 ft | 107 kts | 185° |
| 2026-05-08 18:39 | 49.36389 | 8.49568 | 2177 ft | 95 kts | 185° |
| 2026-05-08 18:39 | 49.35755 | 8.49417 | 2090 ft | 93 kts | 181° |
| 2026-05-08 18:39 | 49.35113 | 8.49292 | 2017 ft | 91 kts | 185° |
| 2026-05-08 18:39 | 49.34515 | 8.48992 | 1921 ft | 92 kts | 188° |
| 2026-05-08 18:40 | 49.33886 | 8.49032 | 1749 ft | 83 kts | 161° |
| 2026-05-08 18:40 | 49.33359 | 8.49160 | 1699 ft | 81 kts | 184° |
| 2026-05-08 18:40 | 49.32890 | 8.48630 | 1523 ft | 84 kts | 220° |
| 2026-05-08 18:40 | 49.32458 | 8.48078 | 1391 ft | 74 kts | 213° |
| 2026-05-08 18:41 | 49.32000 | 8.48109 | 1274 ft | 63 kts | 137° |
| 2026-05-08 18:41 | 49.31665 | 8.48484 | 1240 ft | 58 kts | 133° |
| 2026-05-08 18:41 | 49.31480 | 8.48930 | 1161 ft | 55 kts | 57° |
| 2026-05-08 18:41 | 49.31818 | 8.48916 | 1166 ft | 54 kts | 339° |
| 2026-05-08 18:42 | 49.32156 | 8.48694 | 1171 ft | 54 kts | 348° |
| 2026-05-08 18:42 | 49.32479 | 8.48642 | 1205 ft | 47 kts | 74° |
| 2026-05-08 18:42 | 49.32248 | 8.48457 | 1170 ft | 63 kts | 269° |
| 2026-05-08 18:42 | 49.31926 | 8.48066 | 1145 ft | 66 kts | 155° |
| 2026-05-08 18:43 | 49.31556 | 8.48403 | 1148 ft | 62 kts | 145° |
| 2026-05-08 18:43 | 49.31157 | 8.48693 | 1191 ft | 63 kts | 150° |
| 2026-05-08 18:43 | 49.30731 | 8.48918 | 1282 ft | 64 kts | 150° |
| 2026-05-08 18:43 | 49.30319 | 8.49153 | 1349 ft | 66 kts | 149° |
| 2026-05-08 18:44 | 49.29906 | 8.49481 | 1428 ft | 68 kts | 142° |
| 2026-05-08 18:44 | 49.29462 | 8.49724 | 1419 ft | 70 kts | 174° |
| 2026-05-08 18:44 | 49.29030 | 8.49444 | 1380 ft | 65 kts | 217° |
| 2026-05-08 18:44 | 49.28780 | 8.48897 | 1311 ft | 65 kts | 251° |
| 2026-05-08 18:45 | 49.28597 | 8.48255 | 1252 ft | 63 kts | 249° |
| 2026-05-08 18:45 | 49.28422 | 8.47665 | 1208 ft | 58 kts | 249° |
| 2026-05-08 18:45 | 49.28290 | 8.47074 | 1108 ft | 57 kts | 276° |
| 2026-05-08 18:45 | 49.28250 | 8.46465 | 1038 ft | 51 kts | 276° |
| 2026-05-08 18:46 | 49.28428 | 8.46017 | 935 ft | 53 kts | 329° |
| 2026-05-08 18:46 | 49.28795 | 8.45783 | 770 ft | 51 kts | 16° |
| 2026-05-08 18:46 | 49.29158 | 8.45676 | 575 ft | 55 kts | 343° |
| 2026-05-08 18:46 | 49.29542 | 8.45546 | 367 ft | 59 kts | 348° |
| 2026-05-08 18:47 | 49.29894 | 8.45413 | 324 ft | 44 kts | 346° |
| 2026-05-08 18:47 | 49.30148 | 8.45309 | 315 ft | 33 kts | 345° |
| 2026-05-08 18:47 | 49.30333 | 8.45233 | 314 ft | 24 kts | 345° |
| 2026-05-08 18:47 | 49.30463 | 8.45210 | 310 ft | 9 kts | 47° |
| 2026-05-08 18:48 | 49.30472 | 8.45293 | 310 ft | 6 kts | 117° |
| 2026-05-08 18:48 | 49.30441 | 8.45332 | 311 ft | 6 kts | 89° |
| 2026-05-08 18:48 | 49.30425 | 8.45379 | 313 ft | 6 kts | 162° |
| 2026-05-08 18:48 | 49.30385 | 8.45396 | 313 ft | 1 kts | 176° |
| 2026-05-08 18:49 | 49.30370 | 8.45386 | 313 ft | 0 kts | 248° |
| 2026-05-08 18:55 | 49.30256 | 8.45389 | 314 ft | 13 kts | 162° |
| 2026-05-08 18:55 | 49.30161 | 8.45427 | 317 ft | 14 kts | 165° |
| 2026-05-08 18:55 | 49.30079 | 8.45460 | 319 ft | 4 kts | 186° |
| 2026-05-08 18:56 | 49.30059 | 8.45422 | 319 ft | 0 kts | 256° |
| 2026-05-08 18:57 | 49.30057 | 8.45408 | 319 ft | 5 kts | 255° |
| 2026-05-08 18:57 | 49.30054 | 8.45357 | 319 ft | 10 kts | 299° |
| 2026-05-08 18:57 | 49.30432 | 8.45189 | 323 ft | 71 kts | 344° |
| 2026-05-08 18:57 | 49.30947 | 8.44962 | 479 ft | 78 kts | 345° |
| 2026-05-08 18:58 | 49.31405 | 8.44697 | 773 ft | 64 kts | 336° |
| 2026-05-08 18:58 | 49.31826 | 8.44711 | 939 ft | 65 kts | 33° |
| 2026-05-08 18:58 | 49.32150 | 8.45220 | 1166 ft | 66 kts | 69° |
| 2026-05-08 18:58 | 49.32267 | 8.45937 | 1284 ft | 73 kts | 72° |
| 2026-05-08 18:59 | 49.32354 | 8.46738 | 1369 ft | 88 kts | 79° |
| 2026-05-08 18:59 | 49.32225 | 8.47655 | 1443 ft | 98 kts | 126° |
| 2026-05-08 18:59 | 49.31531 | 8.48081 | 1275 ft | 121 kts | 163° |
| 2026-05-08 18:59 | 49.30692 | 8.48347 | 1181 ft | 124 kts | 164° |
| 2026-05-08 19:00 | 49.29923 | 8.48580 | 1250 ft | 98 kts | 164° |
| 2026-05-08 19:00 | 49.29299 | 8.48770 | 1398 ft | 87 kts | 162° |
| 2026-05-08 19:00 | 49.28803 | 8.48640 | 1415 ft | 71 kts | 218° |
| 2026-05-08 19:00 | 49.28536 | 8.47968 | 1243 ft | 80 kts | 250° |
| 2026-05-08 19:01 | 49.28347 | 8.47183 | 1038 ft | 77 kts | 255° |
| 2026-05-08 19:01 | 49.28286 | 8.46460 | 897 ft | 64 kts | 290° |
| 2026-05-08 19:01 | 49.28517 | 8.45960 | 741 ft | 57 kts | 340° |
| 2026-05-08 19:01 | 49.28897 | 8.45794 | 575 ft | 53 kts | 347° |
| 2026-05-08 19:02 | 49.29237 | 8.45656 | 472 ft | 51 kts | 345° |
| 2026-05-08 19:02 | 49.29587 | 8.45532 | 368 ft | 51 kts | 346° |
| 2026-05-08 19:02 | 49.29961 | 8.45384 | 358 ft | 67 kts | 345° |
| 2026-05-08 19:02 | 49.30461 | 8.45176 | 477 ft | 80 kts | 346° |
| 2026-05-08 19:03 | 49.31001 | 8.44975 | 614 ft | 83 kts | 348° |
| 2026-05-08 19:03 | 49.31520 | 8.44920 | 849 ft | 73 kts | 8° |
| 2026-05-08 19:03 | 49.32031 | 8.45098 | 1026 ft | 69 kts | 29° |
| 2026-05-08 19:03 | 49.32383 | 8.45637 | 1146 ft | 72 kts | 47° |
| 2026-05-08 19:04 | 49.32710 | 8.46136 | 1423 ft | 64 kts | 45° |
| 2026-05-08 19:04 | 49.33028 | 8.46579 | 1730 ft | 57 kts | 49° |
| 2026-05-08 19:04 | 49.33487 | 8.46702 | 1853 ft | 80 kts | 0° |
| 2026-05-08 19:04 | 49.34054 | 8.46579 | 2018 ft | 82 kts | 0° |
| 2026-05-08 19:05 | 49.34639 | 8.46490 | 2134 ft | 90 kts | 3° |
| 2026-05-08 19:05 | 49.35111 | 8.46882 | 2408 ft | 72 kts | 48° |
| 2026-05-08 19:05 | 49.35472 | 8.47380 | 2636 ft | 69 kts | 45° |
| 2026-05-08 19:05 | 49.35845 | 8.47882 | 2769 ft | 76 kts | 47° |
| 2026-05-08 19:06 | 49.36211 | 8.48527 | 2853 ft | 83 kts | 59° |
| 2026-05-08 19:06 | 49.36554 | 8.49328 | 2862 ft | 90 kts | 59° |
| 2026-05-08 19:06 | 49.36869 | 8.50094 | 2993 ft | 87 kts | 60° |
| 2026-05-08 19:06 | 49.37219 | 8.50863 | 3055 ft | 91 kts | 46° |
| 2026-05-08 19:07 | 49.37791 | 8.51346 | 3148 ft | 92 kts | 26° |
| 2026-05-08 19:07 | 49.38396 | 8.51679 | 3244 ft | 92 kts | 33° |
| 2026-05-08 19:07 | 49.38964 | 8.52128 | 3289 ft | 97 kts | 21° |
| 2026-05-08 19:07 | 49.39646 | 8.52306 | 3354 ft | 98 kts | 11° |
| 2026-05-08 19:08 | 49.40326 | 8.52351 | 3420 ft | 99 kts | 6° |
| 2026-05-08 19:08 | 49.41028 | 8.52356 | 3461 ft | 103 kts | 4° |
| 2026-05-08 19:08 | 49.41745 | 8.52308 | 3491 ft | 104 kts | 1° |
| 2026-05-08 19:08 | 49.42455 | 8.52296 | 3554 ft | 101 kts | 6° |
| 2026-05-08 19:09 | 49.43151 | 8.52255 | 3636 ft | 99 kts | 1° |
| 2026-05-08 19:09 | 49.43840 | 8.52149 | 3697 ft | 99 kts | 358° |
| 2026-05-08 19:09 | 49.44493 | 8.52119 | 3866 ft | 83 kts | 22° |
| 2026-05-08 19:09 | 49.45064 | 8.52332 | 3967 ft | 89 kts | 17° |
| 2026-05-08 19:10 | 49.45698 | 8.52428 | 3973 ft | 100 kts | 4° |
| 2026-05-08 19:10 | 49.46061 | 8.52966 | 4148 ft | 86 kts | 111° |
| 2026-05-08 19:10 | 49.45491 | 8.53480 | 4075 ft | 108 kts | 160° |
| 2026-05-08 19:10 | 49.44866 | 8.54013 | 4052 ft | 106 kts | 124° |
| 2026-05-08 19:11 | 49.44765 | 8.55099 | 3943 ft | 106 kts | 81° |
| 2026-05-08 19:11 | 49.44834 | 8.56200 | 3971 ft | 99 kts | 85° |
| 2026-05-08 19:11 | 49.44838 | 8.57267 | 3944 ft | 103 kts | 91° |
| 2026-05-08 19:11 | 49.44791 | 8.58491 | 3568 ft | 121 kts | 92° |
| 2026-05-08 19:12 | 49.44742 | 8.59784 | 3311 ft | 120 kts | 90° |
| 2026-05-08 19:12 | 49.44703 | 8.61020 | 3209 ft | 111 kts | 91° |
| 2026-05-08 19:12 | 49.44654 | 8.62232 | 2977 ft | 113 kts | 92° |
| 2026-05-08 19:12 | 49.44584 | 8.63411 | 2918 ft | 107 kts | 94° |
| 2026-05-08 19:13 | 49.44460 | 8.64510 | 2919 ft | 103 kts | 98° |
| 2026-05-08 19:13 | 49.44303 | 8.65608 | 2864 ft | 104 kts | 100° |
| 2026-05-08 19:13 | 49.44135 | 8.66638 | 2917 ft | 100 kts | 103° |
| 2026-05-08 19:13 | 49.43945 | 8.67580 | 3042 ft | 90 kts | 105° |
| 2026-05-08 19:14 | 49.43659 | 8.68519 | 2941 ft | 106 kts | 120° |
| 2026-05-08 19:14 | 49.43140 | 8.69348 | 2881 ft | 109 kts | 141° |
| 2026-05-08 19:14 | 49.42475 | 8.70030 | 2586 ft | 122 kts | 139° |
| 2026-05-08 19:14 | 49.41896 | 8.70898 | 2664 ft | 96 kts | 136° |
| 2026-05-08 19:15 | 49.41495 | 8.70533 | 2899 ft | 104 kts | 283° |
| 2026-05-08 19:15 | 49.41994 | 8.69968 | 3042 ft | 84 kts | 353° |
| 2026-05-08 19:15 | 49.42509 | 8.70049 | 3250 ft | 67 kts | 62° |
| 2026-05-08 19:15 | 49.42308 | 8.70739 | 3290 ft | 88 kts | 138° |
| 2026-05-08 19:16 | 49.41684 | 8.70654 | 3415 ft | 103 kts | 216° |
| 2026-05-08 19:16 | 49.41494 | 8.69631 | 3465 ft | 104 kts | 296° |
| 2026-05-08 19:16 | 49.42094 | 8.69255 | 3383 ft | 98 kts | 17° |
| 2026-05-08 19:16 | 49.42403 | 8.69993 | 3413 ft | 94 kts | 102° |
| 2026-05-08 19:17 | 49.41831 | 8.70418 | 3420 ft | 109 kts | 186° |
| 2026-05-08 19:17 | 49.41108 | 8.69646 | 2911 ft | 141 kts | 239° |
| 2026-05-08 19:17 | 49.40743 | 8.68242 | 2672 ft | 136 kts | 265° |
| 2026-05-08 19:17 | 49.40818 | 8.66848 | 2517 ft | 133 kts | 281° |
| 2026-05-08 19:18 | 49.41013 | 8.65418 | 2206 ft | 139 kts | 280° |
| 2026-05-08 19:18 | 49.41098 | 8.63975 | 2083 ft | 132 kts | 279° |
| 2026-05-08 19:18 | 49.41251 | 8.62583 | 1920 ft | 133 kts | 287° |
| 2026-05-08 19:18 | 49.41436 | 8.61229 | 1769 ft | 137 kts | 270° |
| 2026-05-08 19:19 | 49.41244 | 8.59830 | 1740 ft | 123 kts | 267° |
| 2026-05-08 19:19 | 49.41206 | 8.58503 | 1640 ft | 129 kts | 271° |
| 2026-05-08 19:19 | 49.41194 | 8.57113 | 1517 ft | 124 kts | 272° |
| 2026-05-08 19:19 | 49.41198 | 8.55896 | 1376 ft | 107 kts | 272° |
| 2026-05-08 19:20 | 49.41216 | 8.54793 | 1324 ft | 99 kts | 278° |
| 2026-05-08 19:20 | 49.41234 | 8.54444 | 1288 ft | 102 kts | 275° |
| 2026-05-08 19:20 | 49.41274 | 8.52762 | 1393 ft | 83 kts | 294° |
| 2026-05-08 19:20 | 49.41669 | 8.52185 | 1333 ft | 80 kts | 345° |
| 2026-05-08 19:21 | 49.42174 | 8.52149 | 1287 ft | 68 kts | 21° |
| 2026-05-08 19:21 | 49.42615 | 8.52379 | 1314 ft | 67 kts | 22° |
| 2026-05-08 19:21 | 49.43072 | 8.52579 | 1337 ft | 68 kts | 21° |
| 2026-05-08 19:21 | 49.43539 | 8.52408 | 1303 ft | 81 kts | 319° |
| 2026-05-08 19:22 | 49.43889 | 8.51743 | 1292 ft | 74 kts | 328° |
| 2026-05-08 19:22 | 49.44315 | 8.51488 | 1232 ft | 66 kts | 353° |
| 2026-05-08 19:22 | 49.44742 | 8.51351 | 1131 ft | 64 kts | 350° |
| 2026-05-08 19:22 | 49.45157 | 8.51152 | 1031 ft | 64 kts | 343° |
| 2026-05-08 19:23 | 49.45526 | 8.50666 | 976 ft | 77 kts | 310° |
| 2026-05-08 19:23 | 49.45692 | 8.50186 | 1016 ft | 77 kts | 300° |
| 2026-05-08 19:23 | 49.46094 | 8.49492 | 1034 ft | 65 kts | 347° |
| 2026-05-08 19:23 | 49.46529 | 8.49235 | 974 ft | 65 kts | 345° |
| 2026-05-08 19:24 | 49.46818 | 8.49100 | 920 ft | 66 kts | 351° |
| 2026-05-08 19:24 | 49.47225 | 8.49311 | 708 ft | 71 kts | 30° |
| 2026-05-08 19:24 | 49.47341 | 8.49933 | 569 ft | 66 kts | 101° |
| 2026-05-08 19:24 | 49.47309 | 8.50673 | 321 ft | 69 kts | 95° |
| 2026-05-08 19:25 | 49.47280 | 8.51311 | 311 ft | 52 kts | 92° |
| 2026-05-08 19:25 | 49.47261 | 8.51809 | 308 ft | 41 kts | 96° |
| 2026-05-08 19:25 | 49.47257 | 8.52036 | 311 ft | 4 kts | 29° |
| 2026-05-08 19:25 | 49.47284 | 8.52054 | 311 ft | 0 kts | 46° |
| 2026-05-08 19:26 | 49.47290 | 8.52115 | 310 ft | 10 kts | 95° |
| 2026-05-08 19:26 | 49.47335 | 8.52155 | 312 ft | 7 kts | 5° |
| 2026-05-08 19:26 | 49.47380 | 8.52158 | 313 ft | 7 kts | 2° |
| 2026-05-08 19:26 | 49.47457 | 8.52164 | 313 ft | 13 kts | 4° |
| 2026-05-08 19:27 | 49.47540 | 8.52173 | 313 ft | 11 kts | 0° |
| 2026-05-08 19:27 | 49.47583 | 8.52157 | 313 ft | 6 kts | 273° |
| 2026-05-08 19:27 | 49.47563 | 8.52137 | 312 ft | 0 kts | 185° |